This is the latest recevied weather packets stored in our database for station/object N0SWP-3. If no packets are shown the sender has not sent any weather packets the latest 10 day(s).
| Time | Temp. | Humidity | Pressure | Rain* | Wind** | Luminosity | Snow |
|---|---|---|---|---|---|---|---|
| 1777851723 | 27.22° C | 37% | 1008.4 hPa | 0 mm | - | - | - |
| 1777850284 | 27.78° C | 37% | 1008.5 hPa | 0 mm | - | - | - |
| 1777850103 | 27.78° C | 36% | 1008.5 hPa | 0 mm | - | - | - |
| 1777849384 | 27.78° C | 36% | 1008.5 hPa | 0 mm | - | - | - |
| 1777848663 | 27.78° C | 34% | 1008.5 hPa | 0 mm | - | - | - |
| 1777848484 | 27.78° C | 34% | 1008.6 hPa | 0 mm | - | - | - |
| 1777848123 | 28.33° C | 33% | 1008.8 hPa | 0 mm | - | - | - |
| 1777847763 | 28.33° C | 35% | 1008.9 hPa | 0 mm | - | - | - |
| 1777847403 | 28.33° C | 33% | 1009 hPa | 0 mm | - | - | - |
| 1777846863 | 28.89° C | 28% | 1009.1 hPa | 0 mm | - | - | - |
| 1777846503 | 28.89° C | 28% | 1009.2 hPa | 0 mm | - | - | - |
| 1777845604 | 29.44° C | 28% | 1009.3 hPa | 0 mm | - | - | - |
| 1777844163 | 30° C | 32% | 1009.5 hPa | 0 mm | - | - | - |
| 1777843804 | 30° C | 33% | 1009.6 hPa | 0 mm | - | - | - |
| 1777843039 | 30° C | 30% | 1009.8 hPa | 0 mm | - | - | - |
| 1777842363 | 30° C | 30% | 1010 hPa | 0 mm | - | - | - |
| 1777841104 | 28.89° C | 34% | 1010.2 hPa | 0 mm | - | - | - |
| 1777836963 | 27.78° C | 36% | 1011.4 hPa | 0 mm | - | - | - |
| 1777835163 | 27.78° C | 38% | 1011.8 hPa | 0 mm | - | - | - |
| 1777834983 | 27.78° C | 37% | 1011.9 hPa | 0 mm | - | - | - |
| 1777832238 | 26.67° C | 39% | 1012.7 hPa | 0 mm | - | - | - |
| 1777830843 | 26.11° C | 41% | 1013.2 hPa | 0 mm | - | - | - |
| 1777830663 | 25.56° C | 40% | 1013.2 hPa | 0 mm | - | - | - |
| 1777830124 | 25.56° C | 43% | 1013.4 hPa | 0 mm | - | - | - |
| 1777828864 | 25° C | 41% | 1013.7 hPa | 0 mm | - | - | - |
* Rain latest hour (hover to see other rain measurements)
** Current wind speed in m/s (hover to see current wind gust speed)